Kurten, Texas
Current Conditions -  °F | °C
As of 7:15 PM on Tuesday 25 Nov 2014 (Local Time) from KCFD Reporting Station
Clear Clear  
Wind Chill: 50°   Ceiling: Unl
Heat Index: 50°   Visibility: 10mi
Dew Point: 33°   Wind: 0mph
Humidity: 51%   Direction: NA
Pressure: 30.23"   Gusts: NA
Location:  30.79°N, 96.26°W
Report Text: KCFD 260115Z AUTO 00000KT 10SM CLR 10/00 A3023 RMK AO2 T01010004
Loading
Personal Weather Stations






























Interactive Weather Map New forecast layout! Learn more

10-Day Weather Forecast

Advertisements
Track Severe Weather on mobile